createdAt,value
2024-02-18T00:00:50.233Z,94151.00
2024-02-18T00:01:50.245Z,94154.00
2024-02-18T00:02:50.333Z,94154.00
2024-02-18T00:03:50.381Z,94156.00
2024-02-18T00:04:50.510Z,94158.00
2024-02-18T00:05:50.421Z,94160.00
2024-02-18T00:06:50.518Z,94159.00
2024-02-18T00:07:50.490Z,94162.00
2024-02-18T00:08:50.628Z,94162.00
2024-02-18T00:09:50.616Z,94164.00
2024-02-18T00:10:50.650Z,94165.00
2024-02-18T00:11:50.671Z,94167.00
2024-02-18T00:12:50.750Z,94168.00
2024-02-18T00:13:50.812Z,94170.00
2024-02-18T00:14:50.804Z,94172.00
2024-02-18T00:15:50.910Z,94171.00
2024-02-18T00:16:50.892Z,94171.00
2024-02-18T00:17:50.981Z,94172.00
2024-02-18T00:18:51.147Z,94172.00
2024-02-18T00:19:51.077Z,94174.00
2024-02-18T00:20:51.077Z,94174.00
2024-02-18T00:21:51.135Z,94174.00
2024-02-18T00:22:51.166Z,94172.00
2024-02-18T00:23:51.208Z,94172.00
2024-02-18T00:24:51.282Z,94175.00
2024-02-18T00:25:51.299Z,94172.00
2024-02-18T00:26:58.091Z,94171.00
2024-02-18T00:27:52.357Z,94170.00
2024-02-18T00:28:51.360Z,94168.00
2024-02-18T00:29:51.317Z,94166.00
2024-02-18T00:30:51.326Z,94164.00
2024-02-18T00:31:51.394Z,94164.00
2024-02-18T00:32:51.349Z,94164.00
2024-02-18T00:33:51.352Z,94164.00
2024-02-18T00:34:51.356Z,94163.00
2024-02-18T00:35:51.265Z,94164.00
2024-02-18T00:36:51.364Z,94163.00
2024-02-18T00:37:51.286Z,94162.00
2024-02-18T00:38:51.349Z,94162.00
2024-02-18T00:39:51.460Z,94161.00
2024-02-18T00:40:51.503Z,94160.00
2024-02-18T00:41:51.444Z,94159.00
2024-02-18T00:42:51.516Z,94158.00
2024-02-18T00:43:51.543Z,94158.00
2024-02-18T00:44:51.562Z,94158.00
2024-02-18T00:45:51.638Z,94155.00
2024-02-18T00:46:57.866Z,94156.00
2024-02-18T00:47:52.739Z,94155.00
2024-02-18T00:48:51.856Z,94156.00
2024-02-18T00:49:51.846Z,94153.00
2024-02-18T00:50:51.609Z,94156.00
2024-02-18T00:51:51.717Z,94156.00
2024-02-18T00:52:51.614Z,94153.00
2024-02-18T00:53:51.599Z,94152.00
2024-02-18T00:54:51.665Z,94149.00
2024-02-18T00:55:51.597Z,94148.00
2024-02-18T00:56:51.590Z,94146.00
2024-02-18T00:57:51.646Z,94147.00
2024-02-18T00:58:51.641Z,94146.00
2024-02-18T00:59:51.725Z,94144.00
2024-02-18T01:00:51.770Z,94144.00
2024-02-18T01:01:51.783Z,94143.00
2024-02-18T01:02:51.792Z,94141.00
2024-02-18T01:03:52.063Z,94143.00
2024-02-18T01:04:52.008Z,94146.00
2024-02-18T01:05:51.998Z,94146.00
2024-02-18T01:06:52.018Z,94149.00
2024-02-18T01:07:52.080Z,94150.00
2024-02-18T01:08:52.073Z,94152.00
2024-02-18T01:09:52.219Z,94152.00
2024-02-18T01:10:52.148Z,94154.00
2024-02-18T01:11:52.305Z,94155.00
2024-02-18T01:12:52.307Z,94155.00
2024-02-18T01:13:52.256Z,94155.00
2024-02-18T01:14:52.297Z,94157.00
2024-02-18T01:15:52.400Z,94156.00
2024-02-18T01:16:52.395Z,94158.00
2024-02-18T01:17:52.469Z,94160.00
2024-02-18T01:18:52.709Z,94159.00
2024-02-18T01:19:52.590Z,94159.00
2024-02-18T01:20:52.572Z,94161.00
2024-02-18T01:21:52.695Z,94162.00
2024-02-18T01:22:52.656Z,94161.00
2024-02-18T01:23:52.751Z,94161.00
2024-02-18T01:24:52.760Z,94161.00
2024-02-18T01:25:52.783Z,94158.00
2024-02-18T01:26:52.834Z,94158.00
2024-02-18T01:27:52.934Z,94155.00
2024-02-18T01:28:52.934Z,94151.00
2024-02-18T01:29:53.000Z,94153.00
2024-02-18T01:30:53.064Z,94150.00
2024-02-18T01:31:53.041Z,94152.00
2024-02-18T01:32:53.154Z,94151.00
2024-02-18T01:33:53.204Z,94150.00
2024-02-18T01:34:53.215Z,94148.00
2024-02-18T01:35:53.213Z,94148.00
2024-02-18T01:36:53.355Z,94147.00
2024-02-18T01:37:53.306Z,94147.00
2024-02-18T01:38:53.360Z,94147.00
2024-02-18T01:39:53.441Z,94146.00
2024-02-18T01:40:53.444Z,94146.00
2024-02-18T01:41:53.482Z,94145.00
2024-02-18T01:42:53.544Z,94147.00
2024-02-18T01:43:53.557Z,94149.00
2024-02-18T01:44:53.607Z,94151.00
2024-02-18T01:45:53.656Z,94154.00
2024-02-18T01:46:53.747Z,94154.00
2024-02-18T01:47:53.808Z,94155.00
2024-02-18T01:48:53.986Z,94155.00
2024-02-18T01:49:53.952Z,94155.00
2024-02-18T01:50:53.922Z,94154.00
2024-02-18T01:51:53.940Z,94155.00
2024-02-18T01:52:53.970Z,94155.00
2024-02-18T01:53:54.057Z,94154.00
2024-02-18T01:54:54.138Z,94156.00
2024-02-18T01:55:54.109Z,94152.00
2024-02-18T01:56:54.153Z,94151.00
2024-02-18T01:57:54.287Z,94151.00
2024-02-18T01:58:54.261Z,94151.00
2024-02-18T01:59:54.296Z,94149.00
2024-02-18T02:00:54.390Z,94149.00
2024-02-18T02:01:54.465Z,94147.00
2024-02-18T02:02:54.439Z,94147.00
2024-02-18T02:03:54.535Z,94148.00
2024-02-18T02:04:54.657Z,94150.00
2024-02-18T02:05:54.640Z,94149.00
2024-02-18T02:06:54.687Z,94149.00
2024-02-18T02:07:54.682Z,94148.00
2024-02-18T02:08:54.710Z,94147.00
2024-02-18T02:09:54.794Z,94145.00
2024-02-18T02:10:54.846Z,94144.00
2024-02-18T02:11:54.850Z,94142.00
2024-02-18T02:12:54.930Z,94140.00
2024-02-18T02:13:54.948Z,94141.00
2024-02-18T02:14:54.990Z,94142.00
2024-02-18T02:15:55.121Z,94141.00
2024-02-18T02:16:55.081Z,94139.00
2024-02-18T02:17:55.262Z,94138.00
2024-02-18T02:18:55.246Z,94137.00
2024-02-18T02:19:55.376Z,94137.00
2024-02-18T02:20:55.293Z,94136.00
2024-02-18T02:21:55.345Z,94138.00
2024-02-18T02:22:55.387Z,94139.00
2024-02-18T02:23:55.422Z,94138.00
2024-02-18T02:24:55.507Z,94136.00
2024-02-18T02:25:55.531Z,94137.00
2024-02-18T02:26:55.576Z,94136.00
2024-02-18T02:27:55.636Z,94132.00
2024-02-18T02:28:55.661Z,94133.00
2024-02-18T02:29:55.719Z,94134.00
2024-02-18T02:30:55.808Z,94132.00
2024-02-18T02:31:58.551Z,94132.00
2024-02-18T02:32:55.999Z,94129.00
2024-02-18T02:33:55.822Z,94127.00
2024-02-18T02:34:55.881Z,94123.00
2024-02-18T02:35:55.777Z,94122.00
2024-02-18T02:36:55.802Z,94123.00
2024-02-18T02:37:55.750Z,94123.00
2024-02-18T02:38:58.467Z,94125.00
2024-02-18T02:39:55.787Z,94124.00
2024-02-18T02:40:55.717Z,94124.00
2024-02-18T02:41:55.701Z,94127.00
2024-02-18T02:42:55.726Z,94124.00
2024-02-18T02:43:55.680Z,94128.00
2024-02-18T02:44:55.681Z,94127.00
2024-02-18T02:45:55.702Z,94127.00
2024-02-18T02:46:55.655Z,94126.00
2024-02-18T02:47:55.699Z,94126.00
2024-02-18T02:48:55.695Z,94127.00
2024-02-18T02:49:55.866Z,94128.00
2024-02-18T02:50:55.625Z,94127.00
2024-02-18T02:51:55.628Z,94128.00
2024-02-18T02:52:55.622Z,94128.00
2024-02-18T02:53:55.603Z,94129.00
2024-02-18T02:54:55.667Z,94128.00
2024-02-18T02:55:55.578Z,94125.00
2024-02-18T02:56:55.578Z,94124.00
2024-02-18T02:57:55.602Z,94123.00
2024-02-18T02:58:55.562Z,94120.00
2024-02-18T02:59:55.546Z,94117.00
2024-02-18T03:00:55.600Z,94117.00
2024-02-18T03:01:55.563Z,94114.00
2024-02-18T03:02:55.513Z,94115.00
2024-02-18T03:03:55.565Z,94114.00
2024-02-18T03:04:55.527Z,94113.00
2024-02-18T03:05:55.497Z,94116.00
2024-02-18T03:06:55.584Z,94117.00
2024-02-18T03:07:55.487Z,94117.00
2024-02-18T03:08:55.455Z,94116.00
2024-02-18T03:09:55.472Z,94117.00
2024-02-18T03:10:55.428Z,94118.00
2024-02-18T03:11:55.463Z,94117.00
2024-02-18T03:12:55.431Z,94114.00
2024-02-18T03:13:55.406Z,94113.00
2024-02-18T03:14:55.400Z,94112.00
2024-02-18T03:15:55.409Z,94113.00
2024-02-18T03:16:55.382Z,94113.00
2024-02-18T03:17:55.385Z,94114.00
2024-02-18T03:18:55.469Z,94112.00
2024-02-18T03:19:55.398Z,94112.00
2024-02-18T03:20:55.443Z,94112.00
2024-02-18T03:21:55.369Z,94113.00
2024-02-18T03:22:55.377Z,94113.00
2024-02-18T03:23:55.458Z,94114.00
2024-02-18T03:24:55.555Z,94114.00
2024-02-18T03:25:55.540Z,94110.00
2024-02-18T03:26:55.585Z,94113.00
2024-02-18T03:27:55.648Z,94113.00
2024-02-18T03:28:55.662Z,94112.00
2024-02-18T03:29:55.719Z,94112.00
2024-02-18T03:30:55.819Z,94112.00
2024-02-18T03:31:55.814Z,94115.00
2024-02-18T03:32:55.907Z,94116.00
2024-02-18T03:33:55.988Z,94115.00
2024-02-18T03:34:56.021Z,94114.00
2024-02-18T03:35:56.012Z,94114.00
2024-02-18T03:36:56.129Z,94113.00
2024-02-18T03:37:56.112Z,94115.00
2024-02-18T03:38:56.214Z,94115.00
2024-02-18T03:39:56.241Z,94115.00
2024-02-18T03:40:56.247Z,94117.00
2024-02-18T03:41:56.299Z,94116.00
2024-02-18T03:42:56.441Z,94119.00
2024-02-18T03:43:56.404Z,94118.00
2024-02-18T03:44:56.451Z,94121.00
2024-02-18T03:45:56.564Z,94122.00
2024-02-18T03:46:56.541Z,94122.00
2024-02-18T03:47:56.630Z,94124.00
2024-02-18T03:48:56.718Z,94123.00
2024-02-18T03:49:56.811Z,94126.00
2024-02-18T03:50:56.738Z,94126.00
2024-02-18T03:51:56.944Z,94128.00
2024-02-18T03:52:56.849Z,94129.00
2024-02-18T03:53:56.884Z,94130.00
2024-02-18T03:54:57.036Z,94132.00
2024-02-18T03:55:56.998Z,94133.00
2024-02-18T03:56:57.041Z,94133.00
2024-02-18T03:57:57.136Z,94133.00
2024-02-18T03:58:57.194Z,94133.00
2024-02-18T03:59:57.186Z,94134.00
2024-02-18T04:00:57.310Z,94133.00
2024-02-18T04:01:57.305Z,94133.00
2024-02-18T04:02:57.316Z,94134.00
2024-02-18T04:03:57.459Z,94135.00
2024-02-18T04:04:57.542Z,94134.00
2024-02-18T04:05:57.458Z,94134.00
2024-02-18T04:06:57.534Z,94132.00
2024-02-18T04:07:57.552Z,94135.00
2024-02-18T04:08:57.688Z,94135.00
2024-02-18T04:09:57.668Z,94135.00
2024-02-18T04:10:57.730Z,94133.00
2024-02-18T04:11:57.782Z,94133.00
2024-02-18T04:12:57.853Z,94131.00
2024-02-18T04:13:57.848Z,94128.00
2024-02-18T04:14:57.897Z,94129.00
2024-02-18T04:15:57.976Z,94130.00
2024-02-18T04:16:57.999Z,94129.00
2024-02-18T04:17:58.120Z,94130.00
2024-02-18T04:18:58.170Z,94129.00
2024-02-18T04:19:58.255Z,94129.00
2024-02-18T04:20:58.193Z,94129.00
2024-02-18T04:21:58.295Z,94129.00
2024-02-18T04:22:58.301Z,94129.00
2024-02-18T04:23:58.372Z,94126.00
2024-02-18T04:24:58.463Z,94126.00
2024-02-18T04:25:58.442Z,94126.00
2024-02-18T04:26:58.477Z,94125.00
2024-02-18T04:27:58.584Z,94126.00
2024-02-18T04:28:58.576Z,94124.00
2024-02-18T04:29:58.628Z,94126.00
2024-02-18T04:30:58.727Z,94124.00
2024-02-18T04:31:58.716Z,94123.00
2024-02-18T04:32:58.826Z,94122.00
2024-02-18T04:33:58.946Z,94122.00
2024-02-18T04:34:58.994Z,94122.00
2024-02-18T04:35:58.893Z,94123.00
2024-02-18T04:36:59.036Z,94124.00
2024-02-18T04:37:58.996Z,94126.00
2024-02-18T04:39:06.253Z,94126.00
2024-02-18T04:40:06.374Z,94128.00
2024-02-18T04:41:06.247Z,94129.00
2024-02-18T04:42:06.244Z,94131.00
2024-02-18T04:43:06.317Z,94133.00
2024-02-18T04:44:06.239Z,94133.00
2024-02-18T04:45:06.238Z,94132.00
2024-02-18T04:46:06.279Z,94133.00
2024-02-18T04:47:06.224Z,94133.00
2024-02-18T04:48:06.266Z,94133.00
2024-02-18T04:49:06.286Z,94136.00
2024-02-18T04:50:06.241Z,94135.00
2024-02-18T04:51:06.190Z,94136.00
2024-02-18T04:52:06.227Z,94134.00
2024-02-18T04:53:06.175Z,94135.00
2024-02-18T04:54:06.171Z,94134.00
2024-02-18T04:55:06.207Z,94135.00
2024-02-18T04:56:06.159Z,94134.00
2024-02-18T04:57:06.136Z,94134.00
2024-02-18T04:58:06.236Z,94132.00
2024-02-18T04:59:06.111Z,94132.00
2024-02-18T05:00:06.107Z,94129.00
2024-02-18T05:01:06.169Z,94128.00
2024-02-18T05:02:06.102Z,94129.00
2024-02-18T05:03:06.130Z,94130.00
2024-02-18T05:04:06.124Z,94127.00
2024-02-18T05:05:06.111Z,94129.00
2024-02-18T05:06:06.094Z,94129.00
2024-02-18T05:07:06.111Z,94129.00
2024-02-18T05:08:06.059Z,94128.00
2024-02-18T05:09:06.038Z,94127.00
2024-02-18T05:10:06.174Z,94123.00
2024-02-18T05:11:06.028Z,94123.00
2024-02-18T05:12:06.058Z,94124.00
2024-02-18T05:13:06.133Z,94124.00
2024-02-18T05:14:06.151Z,94122.00
2024-02-18T05:15:06.211Z,94122.00
2024-02-18T05:16:06.291Z,94120.00
2024-02-18T05:17:06.293Z,94122.00
2024-02-18T05:18:06.404Z,94121.00
2024-02-18T05:19:06.429Z,94120.00
2024-02-18T05:20:06.439Z,94120.00
2024-02-18T05:21:06.510Z,94122.00
2024-02-18T05:22:06.702Z,94122.00
2024-02-18T05:23:06.592Z,94122.00
2024-02-18T05:24:06.634Z,94123.00
2024-02-18T05:25:06.772Z,94122.00
2024-02-18T05:26:06.724Z,94123.00
2024-02-18T05:27:06.774Z,94121.00
2024-02-18T05:28:06.933Z,94124.00
2024-02-18T05:29:06.862Z,94121.00
2024-02-18T05:30:06.937Z,94121.00
2024-02-18T05:31:07.004Z,94121.00
2024-02-18T05:32:07.005Z,94122.00
2024-02-18T05:33:07.123Z,94122.00
2024-02-18T05:34:07.279Z,94124.00
2024-02-18T05:35:11.313Z,94125.00
2024-02-18T05:36:07.189Z,94126.00
2024-02-18T05:37:07.296Z,94127.00
2024-02-18T05:38:07.149Z,94128.00
2024-02-18T05:39:07.127Z,94130.00
2024-02-18T05:40:07.238Z,94129.00
2024-02-18T05:41:07.127Z,94129.00
2024-02-18T05:42:07.112Z,94128.00
2024-02-18T05:43:07.197Z,94129.00
2024-02-18T05:44:07.099Z,94127.00
2024-02-18T05:45:07.097Z,94124.00
2024-02-18T05:46:07.149Z,94124.00
2024-02-18T05:47:07.142Z,94121.00
2024-02-18T05:48:07.312Z,94119.00
2024-02-18T05:49:07.370Z,94122.00
2024-02-18T05:50:07.379Z,94118.00
2024-02-18T05:51:07.355Z,94116.00
2024-02-18T05:52:07.459Z,94118.00
2024-02-18T05:53:07.432Z,94118.00
2024-02-18T05:54:07.476Z,94119.00
2024-02-18T05:55:07.575Z,94123.00
2024-02-18T05:56:07.575Z,94124.00
2024-02-18T05:57:07.618Z,94122.00
2024-02-18T05:58:07.719Z,94119.00
2024-02-18T05:59:07.715Z,94121.00
2024-02-18T06:00:07.843Z,94119.00
2024-02-18T06:01:07.849Z,94118.00
2024-02-18T06:02:07.847Z,94121.00
2024-02-18T06:03:07.892Z,94123.00
2024-02-18T06:04:08.075Z,94125.00
2024-02-18T06:05:08.027Z,94125.00
2024-02-18T06:06:08.168Z,94128.00
2024-02-18T06:07:08.168Z,94127.00
2024-02-18T06:08:08.132Z,94128.00
2024-02-18T06:09:08.186Z,94130.00
2024-02-18T06:10:08.445Z,94128.00
2024-02-18T06:11:08.378Z,94131.00
2024-02-18T06:12:08.378Z,94133.00
2024-02-18T06:13:08.422Z,94134.00
2024-02-18T06:14:08.426Z,94134.00
2024-02-18T06:15:08.462Z,94136.00
2024-02-18T06:16:08.592Z,94134.00
2024-02-18T06:17:08.558Z,94134.00
2024-02-18T06:18:08.751Z,94134.00
2024-02-18T06:19:10.190Z,94137.00
2024-02-18T06:20:08.672Z,94139.00
2024-02-18T06:21:08.640Z,94137.00
2024-02-18T06:22:08.893Z,94139.00
2024-02-18T06:23:08.650Z,94138.00
2024-02-18T06:24:08.640Z,94139.00
2024-02-18T06:25:08.710Z,94140.00
2024-02-18T06:26:08.641Z,94140.00
2024-02-18T06:27:08.639Z,94142.00
2024-02-18T06:28:08.734Z,94145.00
2024-02-18T06:29:08.631Z,94144.00
2024-02-18T06:30:08.648Z,94142.00
2024-02-18T06:31:08.708Z,94143.00
2024-02-18T06:32:08.822Z,94145.00
2024-02-18T06:33:08.705Z,94145.00
2024-02-18T06:34:08.705Z,94144.00
2024-02-18T06:35:08.835Z,94146.00
2024-02-18T06:36:08.610Z,94148.00
2024-02-18T06:37:08.679Z,94148.00
2024-02-18T06:38:08.606Z,94149.00
2024-02-18T06:39:08.601Z,94149.00
2024-02-18T06:40:08.650Z,94151.00
2024-02-18T06:41:08.597Z,94151.00
2024-02-18T06:42:08.590Z,94149.00
2024-02-18T06:43:08.628Z,94151.00
2024-02-18T06:44:08.576Z,94152.00
2024-02-18T06:45:08.596Z,94150.00
2024-02-18T06:46:12.796Z,94152.00
2024-02-18T06:47:08.563Z,94151.00
2024-02-18T06:48:08.718Z,94150.00
2024-02-18T06:49:08.618Z,94151.00
2024-02-18T06:50:08.610Z,94151.00
2024-02-18T06:51:08.542Z,94150.00
2024-02-18T06:52:08.667Z,94151.00
2024-02-18T06:53:08.531Z,94150.00
2024-02-18T06:54:08.550Z,94152.00
2024-02-18T06:55:08.588Z,94151.00
2024-02-18T06:56:08.522Z,94148.00
2024-02-18T06:57:08.523Z,94147.00
2024-02-18T06:58:08.643Z,94148.00
2024-02-18T06:59:08.538Z,94144.00
2024-02-18T07:00:08.576Z,94148.00
2024-02-18T07:01:08.680Z,94151.00
2024-02-18T07:02:08.728Z,94148.00
2024-02-18T07:03:08.697Z,94150.00
2024-02-18T07:04:08.987Z,94148.00
2024-02-18T07:05:08.984Z,94151.00
2024-02-18T07:06:08.963Z,94150.00
2024-02-18T07:07:09.034Z,94146.00
2024-02-18T07:08:08.907Z,94148.00
2024-02-18T07:09:08.955Z,94146.00
2024-02-18T07:10:09.229Z,94144.00
2024-02-18T07:11:09.099Z,94142.00
2024-02-18T07:12:09.140Z,94142.00
2024-02-18T07:13:09.199Z,94140.00
2024-02-18T07:14:09.213Z,94141.00
2024-02-18T07:15:09.224Z,94140.00
2024-02-18T07:16:09.455Z,94137.00
2024-02-18T07:17:09.311Z,94142.00
2024-02-18T07:18:09.624Z,94143.00
2024-02-18T07:19:09.706Z,94142.00
2024-02-18T07:20:09.631Z,94144.00
2024-02-18T07:21:09.485Z,94146.00
2024-02-18T07:22:09.549Z,94148.00
2024-02-18T07:23:09.576Z,94147.00
2024-02-18T07:24:09.625Z,94149.00
2024-02-18T07:25:09.738Z,94148.00
2024-02-18T07:26:09.716Z,94148.00
2024-02-18T07:27:09.743Z,94145.00
2024-02-18T07:28:09.915Z,94146.00
2024-02-18T07:29:09.841Z,94148.00
2024-02-18T07:30:09.889Z,94150.00
2024-02-18T07:31:10.016Z,94150.00
2024-02-18T07:32:09.966Z,94150.00
2024-02-18T07:33:10.109Z,94148.00
2024-02-18T07:34:10.099Z,94148.00
2024-02-18T07:35:10.086Z,94147.00
2024-02-18T07:36:10.219Z,94146.00
2024-02-18T07:37:10.196Z,94148.00
2024-02-18T07:38:10.227Z,94148.00
2024-02-18T07:39:10.255Z,94150.00
2024-02-18T07:40:10.446Z,94152.00
2024-02-18T07:41:10.342Z,94153.00
2024-02-18T07:42:10.378Z,94154.00
2024-02-18T07:43:10.538Z,94153.00
2024-02-18T07:44:10.451Z,94156.00
2024-02-18T07:45:10.504Z,94157.00
2024-02-18T07:46:10.616Z,94155.00
2024-02-18T07:47:10.578Z,94157.00
2024-02-18T07:48:10.634Z,94157.00
2024-02-18T07:49:10.729Z,94155.00
2024-02-18T07:50:10.695Z,94155.00
2024-02-18T07:51:10.733Z,94155.00
2024-02-18T07:52:10.899Z,94154.00
2024-02-18T07:53:10.811Z,94154.00
2024-02-18T07:54:10.856Z,94157.00
2024-02-18T07:55:10.942Z,94156.00
2024-02-18T07:56:10.933Z,94154.00
2024-02-18T07:57:10.978Z,94154.00
2024-02-18T07:58:11.047Z,94154.00
2024-02-18T07:59:11.061Z,94154.00
2024-02-18T08:00:11.116Z,94154.00
2024-02-18T08:01:11.293Z,94155.00
2024-02-18T08:02:11.199Z,94155.00
2024-02-18T08:03:11.225Z,94155.00
2024-02-18T08:04:11.353Z,94156.00
2024-02-18T08:05:11.502Z,94157.00
2024-02-18T08:06:11.453Z,94156.00
2024-02-18T08:07:11.420Z,94159.00
2024-02-18T08:08:11.512Z,94156.00
2024-02-18T08:09:11.465Z,94156.00
2024-02-18T08:10:11.622Z,94159.00
2024-02-18T08:11:11.579Z,94155.00
2024-02-18T08:12:11.580Z,94158.00
2024-02-18T08:13:11.699Z,94158.00
2024-02-18T08:14:11.680Z,94158.00
2024-02-18T08:15:11.711Z,94158.00
2024-02-18T08:16:11.782Z,94157.00
2024-02-18T08:17:11.798Z,94156.00
2024-02-18T08:18:11.981Z,94155.00
2024-02-18T08:19:11.919Z,94152.00
2024-02-18T08:20:11.944Z,94153.00
2024-02-18T08:21:11.972Z,94151.00
2024-02-18T08:22:12.109Z,94149.00
2024-02-18T08:23:12.109Z,94150.00
2024-02-18T08:24:12.176Z,94148.00
2024-02-18T08:25:12.240Z,94146.00
2024-02-18T08:26:12.164Z,94144.00
2024-02-18T08:27:12.221Z,94141.00
2024-02-18T08:28:12.339Z,94139.00
2024-02-18T08:29:12.917Z,94137.00
2024-02-18T08:30:12.320Z,94136.00
2024-02-18T08:31:12.386Z,94138.00
2024-02-18T08:32:12.392Z,94133.00
2024-02-18T08:33:12.463Z,94130.00
2024-02-18T08:34:12.581Z,94131.00
2024-02-18T08:35:12.600Z,94128.00
2024-02-18T08:36:12.514Z,94130.00
2024-02-18T08:37:12.618Z,94129.00
2024-02-18T08:38:12.626Z,94127.00
2024-02-18T08:39:12.625Z,94126.00
2024-02-18T08:40:12.804Z,94128.00
2024-02-18T08:41:12.673Z,94129.00
2024-02-18T08:42:12.716Z,94129.00
2024-02-18T08:43:12.819Z,94128.00
2024-02-18T08:44:12.757Z,94127.00
2024-02-18T08:45:12.820Z,94128.00
2024-02-18T08:46:12.863Z,94127.00
2024-02-18T08:47:12.839Z,94127.00
2024-02-18T08:48:12.928Z,94124.00
2024-02-18T08:49:12.932Z,94124.00
2024-02-18T08:50:12.936Z,94124.00
2024-02-18T08:51:12.969Z,94121.00
2024-02-18T08:52:13.012Z,94120.00
2024-02-18T08:53:13.010Z,94118.00
2024-02-18T08:54:13.027Z,94116.00
2024-02-18T08:55:13.219Z,94114.00
2024-02-18T08:56:13.155Z,94111.00
2024-02-18T08:57:13.104Z,94112.00
2024-02-18T08:58:13.167Z,94114.00
2024-02-18T08:59:13.174Z,94112.00
2024-02-18T09:00:13.197Z,94112.00
2024-02-18T09:01:13.353Z,94110.00
2024-02-18T09:02:13.276Z,94114.00
2024-02-18T09:03:13.278Z,94113.00
2024-02-18T09:04:13.370Z,94113.00
2024-02-18T09:05:13.503Z,94111.00
2024-02-18T09:06:13.412Z,94112.00
2024-02-18T09:07:13.412Z,94113.00
2024-02-18T09:08:13.424Z,94111.00
2024-02-18T09:09:13.452Z,94113.00
2024-02-18T09:10:13.623Z,94111.00
2024-02-18T09:11:13.535Z,94113.00
2024-02-18T09:12:13.615Z,94113.00
2024-02-18T09:13:13.661Z,94110.00
2024-02-18T09:14:13.586Z,94109.00
2024-02-18T09:15:13.637Z,94106.00
2024-02-18T09:16:13.723Z,94108.00
2024-02-18T09:17:13.676Z,94108.00
2024-02-18T09:18:13.747Z,94107.00
2024-02-18T09:19:13.795Z,94106.00
2024-02-18T09:20:13.973Z,94106.00
2024-02-18T09:21:13.792Z,94104.00
2024-02-18T09:22:13.924Z,94101.00
2024-02-18T09:23:13.836Z,94103.00
2024-02-18T09:24:13.865Z,94101.00
2024-02-18T09:25:14.106Z,94099.00
2024-02-18T09:26:13.933Z,94100.00
2024-02-18T09:27:13.955Z,94098.00
2024-02-18T09:28:14.040Z,94096.00
2024-02-18T09:29:14.020Z,94094.00
2024-02-18T09:30:14.051Z,94093.00
2024-02-18T09:31:14.152Z,94092.00
2024-02-18T09:32:14.109Z,94091.00
2024-02-18T09:33:14.181Z,94088.00
2024-02-18T09:34:14.294Z,94088.00
2024-02-18T09:35:14.376Z,94086.00
2024-02-18T09:36:14.196Z,94085.00
2024-02-18T09:37:14.240Z,94085.00
2024-02-18T09:38:14.236Z,94085.00
2024-02-18T09:39:14.247Z,94084.00
2024-02-18T09:40:14.331Z,94082.00
2024-02-18T09:41:14.306Z,94082.00
2024-02-18T09:42:14.315Z,94082.00
2024-02-18T09:43:14.371Z,94079.00
2024-02-18T09:44:14.363Z,94077.00
2024-02-18T09:45:14.428Z,94075.00
2024-02-18T09:46:14.552Z,94076.00
2024-02-18T09:47:14.439Z,94074.00
2024-02-18T09:48:14.548Z,94072.00
2024-02-18T09:49:14.567Z,94070.00
2024-02-18T09:50:14.556Z,94069.00
2024-02-18T09:51:15.521Z,94066.00
2024-02-18T09:52:14.731Z,94066.00
2024-02-18T09:53:14.584Z,94065.00
2024-02-18T09:54:14.610Z,94065.00
2024-02-18T09:55:14.683Z,94060.00
2024-02-18T09:56:14.672Z,94061.00
2024-02-18T09:57:14.685Z,94060.00
2024-02-18T09:58:14.756Z,94058.00
2024-02-18T09:59:14.729Z,94058.00
2024-02-18T10:00:14.836Z,94056.00
2024-02-18T10:01:14.854Z,94054.00
2024-02-18T10:02:14.802Z,94054.00
2024-02-18T10:03:14.819Z,94050.00
2024-02-18T10:04:14.895Z,94049.00
2024-02-18T10:05:14.955Z,94044.00
2024-02-18T10:06:14.902Z,94043.00
2024-02-18T10:07:14.940Z,94040.00
2024-02-18T10:08:14.944Z,94040.00
2024-02-18T10:09:14.964Z,94037.00
2024-02-18T10:10:15.036Z,94035.00
2024-02-18T10:11:15.057Z,94034.00
2024-02-18T10:12:15.026Z,94029.00
2024-02-18T10:13:15.124Z,94030.00
2024-02-18T10:14:15.090Z,94029.00
2024-02-18T10:15:15.089Z,94027.00
2024-02-18T10:16:15.258Z,94028.00
2024-02-18T10:17:15.129Z,94027.00
2024-02-18T10:18:15.233Z,94026.00
2024-02-18T10:19:15.288Z,94024.00
2024-02-18T10:20:15.198Z,94023.00
2024-02-18T10:21:15.220Z,94023.00
2024-02-18T10:22:15.300Z,94017.00
2024-02-18T10:23:15.259Z,94015.00
2024-02-18T10:24:15.297Z,94012.00
2024-02-18T10:25:15.361Z,94010.00
2024-02-18T10:26:15.335Z,94008.00
2024-02-18T10:27:15.357Z,94006.00
2024-02-18T10:28:15.399Z,94001.00
2024-02-18T10:29:15.396Z,94003.00
2024-02-18T10:30:15.418Z,93998.00
2024-02-18T10:31:15.489Z,93997.00
2024-02-18T10:32:15.545Z,93994.00
2024-02-18T10:33:15.509Z,93993.00
2024-02-18T10:34:15.682Z,93990.00
2024-02-18T10:35:15.738Z,93990.00
2024-02-18T10:36:16.054Z,93986.00
2024-02-18T10:37:15.682Z,93985.00
2024-02-18T10:38:15.594Z,93980.00
2024-02-18T10:39:15.619Z,93980.00
2024-02-18T10:40:15.747Z,93978.00
2024-02-18T10:41:15.659Z,93975.00
2024-02-18T10:42:15.679Z,93973.00
2024-02-18T10:43:15.767Z,93971.00
2024-02-18T10:44:15.711Z,93970.00
2024-02-18T10:45:15.740Z,93969.00
2024-02-18T10:46:15.817Z,93964.00
2024-02-18T10:47:15.773Z,93963.00
2024-02-18T10:48:16.003Z,93960.00
2024-02-18T10:49:15.952Z,93958.00
2024-02-18T10:50:15.833Z,93956.00
2024-02-18T10:51:15.869Z,93951.00
2024-02-18T10:52:15.904Z,93949.00
2024-02-18T10:53:15.886Z,93946.00
2024-02-18T10:54:15.900Z,93942.00
2024-02-18T10:55:15.935Z,93941.00
2024-02-18T10:56:15.985Z,93937.00
2024-02-18T10:57:16.008Z,93934.00
2024-02-18T10:58:16.011Z,93933.00
2024-02-18T10:59:16.022Z,93933.00
2024-02-18T11:00:15.992Z,93930.00
2024-02-18T11:01:16.116Z,93926.00
2024-02-18T11:02:16.019Z,93927.00
2024-02-18T11:03:16.062Z,93924.00
2024-02-18T11:04:16.301Z,93920.00
2024-02-18T11:05:16.160Z,93914.00
2024-02-18T11:06:16.220Z,93909.00
2024-02-18T11:07:16.298Z,93906.00
2024-02-18T11:08:16.201Z,93906.00
2024-02-18T11:09:16.119Z,93905.00
2024-02-18T11:10:16.171Z,93904.00
2024-02-18T11:11:16.208Z,93902.00
2024-02-18T11:12:16.169Z,93900.00
2024-02-18T11:13:16.226Z,93899.00
2024-02-18T11:14:16.184Z,93895.00
2024-02-18T11:15:16.212Z,93893.00
2024-02-18T11:16:16.310Z,93893.00
2024-02-18T11:17:16.356Z,93890.00
2024-02-18T11:18:16.415Z,93887.00
2024-02-18T11:19:16.538Z,93885.00
2024-02-18T11:20:16.465Z,93880.00
2024-02-18T11:21:16.311Z,93875.00
2024-02-18T11:22:16.331Z,93872.00
2024-02-18T11:23:16.308Z,93871.00
2024-02-18T11:24:16.320Z,93870.00
2024-02-18T11:25:16.480Z,93868.00
2024-02-18T11:26:16.354Z,93865.00
2024-02-18T11:27:16.369Z,93864.00
2024-02-18T11:28:16.415Z,93862.00
2024-02-18T11:29:16.404Z,93858.00
2024-02-18T11:30:16.494Z,93857.00
2024-02-18T11:31:16.456Z,93856.00
2024-02-18T11:32:16.452Z,93853.00
2024-02-18T11:33:16.618Z,93851.00
2024-02-18T11:34:16.547Z,93849.00
2024-02-18T11:35:16.637Z,93847.00
2024-02-18T11:36:16.598Z,93847.00
2024-02-18T11:37:16.540Z,93844.00
2024-02-18T11:38:16.536Z,93843.00
2024-02-18T11:39:16.576Z,93843.00
2024-02-18T11:40:16.779Z,93839.00
2024-02-18T11:41:16.570Z,93838.00
2024-02-18T11:42:16.594Z,93835.00
2024-02-18T11:43:16.645Z,93829.00
2024-02-18T11:44:16.619Z,93828.00
2024-02-18T11:45:16.625Z,93825.00